createdAt,value
2018-08-16T00:00:32.931Z,97745.05
2018-08-16T00:03:00.689Z,97740.44
2018-08-16T00:05:28.458Z,97741.58
2018-08-16T00:07:56.161Z,97744.50
2018-08-16T00:10:30.253Z,97742.93
2018-08-16T00:12:57.986Z,97742.12
2018-08-16T00:15:25.657Z,97736.50
2018-08-16T00:17:53.317Z,97734.12
2018-08-16T00:20:20.976Z,97738.41
2018-08-16T00:22:48.724Z,97734.12
2018-08-16T00:25:16.913Z,97736.25
2018-08-16T00:27:44.656Z,97737.05
2018-08-16T00:30:13.170Z,97731.98
2018-08-16T00:32:41.157Z,97734.47
2018-08-16T00:35:08.814Z,97737.73
2018-08-16T00:37:36.515Z,97733.67
2018-08-16T00:40:05.330Z,97729.39
2018-08-16T00:42:34.745Z,97728.59
2018-08-16T00:45:02.759Z,97721.27
2018-08-16T00:47:30.833Z,97721.05
2018-08-16T00:49:58.515Z,97723.52
2018-08-16T00:52:26.176Z,97721.61
2018-08-16T00:54:53.849Z,97716.19
2018-08-16T00:57:21.548Z,97716.19
2018-08-16T00:59:49.281Z,97713.27
2018-08-16T01:02:17.037Z,97710.78
2018-08-16T01:04:44.766Z,97709.20
2018-08-16T01:07:12.493Z,97707.61
2018-08-16T01:09:40.241Z,97709.20
2018-08-16T01:12:07.925Z,97716.31
2018-08-16T01:14:35.621Z,97706.84
2018-08-16T01:17:03.295Z,97716.31
2018-08-16T01:19:30.965Z,97708.20
2018-08-16T01:21:58.672Z,97708.29
2018-08-16T01:24:26.340Z,97705.24
2018-08-16T01:26:54.076Z,97700.97
2018-08-16T01:29:21.793Z,97699.40
2018-08-16T01:31:49.684Z,97700.75
2018-08-16T01:34:17.462Z,97702.66
2018-08-16T01:36:45.252Z,97694.88
2018-08-16T01:39:13.046Z,97696.45
2018-08-16T01:41:40.840Z,97690.81
2018-08-16T01:44:08.724Z,97686.75
2018-08-16T01:46:36.680Z,97689.46
2018-08-16T01:49:05.698Z,97689.25
2018-08-16T01:51:33.387Z,97686.54
2018-08-16T01:54:01.106Z,97680.33
2018-08-16T01:56:28.917Z,97677.61
2018-08-16T01:58:56.582Z,97677.41
2018-08-16T02:01:24.323Z,97672.75
2018-08-16T02:03:52.063Z,97672.75
2018-08-16T02:06:19.895Z,97667.13
2018-08-16T02:08:47.657Z,97666.33
2018-08-16T02:11:15.346Z,97666.91
2018-08-16T02:13:43.016Z,97568.77
2018-08-16T02:16:10.842Z,97668.27
2018-08-16T02:18:38.550Z,97672.88
2018-08-16T02:21:06.373Z,97667.47
2018-08-16T02:23:34.069Z,97666.11
2018-08-16T02:26:01.817Z,97662.61
2018-08-16T02:28:29.694Z,97659.47
2018-08-16T02:30:57.529Z,97663.53
2018-08-16T02:33:25.301Z,97665.09
2018-08-16T02:35:53.205Z,97668.70
2018-08-16T02:38:20.880Z,97667.59
2018-08-16T02:40:48.541Z,97662.73
2018-08-16T02:43:16.224Z,97666.00
2018-08-16T02:45:43.863Z,97665.78
2018-08-16T02:48:11.525Z,97662.62
2018-08-16T02:50:39.253Z,97665.23
2018-08-16T02:53:06.944Z,97664.21
2018-08-16T02:55:34.649Z,97660.37
2018-08-16T02:58:02.377Z,97659.14
2018-08-16T03:00:30.046Z,97656.43
2018-08-16T03:02:57.762Z,97653.14
2018-08-16T03:05:25.447Z,97654.49
2018-08-16T03:07:53.186Z,97648.86
2018-08-16T03:10:20.856Z,97653.14
2018-08-16T03:12:48.610Z,97653.48
2018-08-16T03:15:16.308Z,97654.84
2018-08-16T03:17:44.018Z,97655.63
2018-08-16T03:20:11.676Z,97651.36
2018-08-16T03:22:39.386Z,97652.47
2018-08-16T03:25:07.075Z,97651.11
2018-08-16T03:27:34.790Z,97649.76
2018-08-16T03:30:02.581Z,97655.97
2018-08-16T03:32:30.301Z,97650.90
2018-08-16T03:35:04.031Z,97652.81
2018-08-16T03:37:31.783Z,97650.69
2018-08-16T03:39:59.449Z,97649.89
2018-08-16T03:42:27.129Z,97649.33
2018-08-16T03:44:54.823Z,97649.33
2018-08-16T03:47:22.496Z,97645.03
2018-08-16T03:49:50.153Z,97648.32
2018-08-16T03:52:17.875Z,97646.17
2018-08-16T03:54:45.560Z,97643.45
2018-08-16T03:57:13.327Z,97643.25
2018-08-16T03:59:41.086Z,97646.50
2018-08-16T04:02:08.889Z,97645.95
2018-08-16T04:04:36.889Z,97650.78
2018-08-16T04:07:04.585Z,97648.42
2018-08-16T04:09:32.301Z,97655.98
2018-08-16T04:12:00.008Z,97655.19
2018-08-16T04:14:27.680Z,97657.09
2018-08-16T04:16:55.396Z,97661.70
2018-08-16T04:19:23.129Z,97657.43
2018-08-16T04:21:50.852Z,97657.98
2018-08-16T04:24:18.562Z,97658.57
2018-08-16T04:26:46.296Z,97664.20
2018-08-16T04:29:14.134Z,97668.27
2018-08-16T04:31:41.909Z,97670.97
2018-08-16T04:34:09.594Z,97668.27
2018-08-16T04:36:37.314Z,97665.89
2018-08-16T04:39:06.330Z,97666.69
2018-08-16T04:41:34.146Z,97663.19
2018-08-16T04:44:01.911Z,97657.55
2018-08-16T04:46:29.605Z,97655.06
2018-08-16T04:48:57.340Z,97662.97
2018-08-16T04:51:25.025Z,97662.39
2018-08-16T04:53:52.718Z,97663.73
2018-08-16T04:56:20.408Z,97654.85
2018-08-16T04:58:48.085Z,97662.63
2018-08-16T05:01:15.778Z,97655.62
2018-08-16T05:03:43.450Z,97658.91
2018-08-16T05:06:11.393Z,97652.14
2018-08-16T05:08:39.118Z,97663.52
2018-08-16T05:11:06.863Z,97659.25
2018-08-16T05:13:34.616Z,97664.33
2018-08-16T05:16:02.409Z,97661.62
2018-08-16T05:18:30.216Z,97668.94
2018-08-16T05:20:57.936Z,97671.09
2018-08-16T05:23:25.693Z,97671.64
2018-08-16T05:25:53.348Z,97667.38
2018-08-16T05:28:21.042Z,97671.09
2018-08-16T05:30:48.760Z,97667.58
2018-08-16T05:33:16.465Z,97665.43
2018-08-16T05:35:44.161Z,97666.23
2018-08-16T05:38:11.891Z,97666.02
2018-08-16T05:40:39.554Z,97668.94
2018-08-16T05:43:07.273Z,97672.20
2018-08-16T05:45:34.950Z,97668.72
2018-08-16T05:48:02.879Z,97674.14
2018-08-16T05:50:30.551Z,97671.98
2018-08-16T05:52:58.250Z,97669.83
2018-08-16T05:55:25.925Z,97671.19
2018-08-16T05:57:53.694Z,97672.78
2018-08-16T06:00:21.361Z,97672.88
2018-08-16T06:02:49.221Z,97667.61
2018-08-16T06:05:16.965Z,97669.39
2018-08-16T06:07:44.896Z,97669.73
2018-08-16T06:10:12.717Z,97670.73
2018-08-16T06:12:40.482Z,97670.31
2018-08-16T06:15:08.997Z,97673.79
2018-08-16T06:17:36.844Z,97670.52
2018-08-16T06:20:05.732Z,97670.06
2018-08-16T06:22:33.563Z,97662.42
2018-08-16T06:25:01.399Z,97662.27
2018-08-16T06:27:29.350Z,97662.23
2018-08-16T06:29:57.320Z,97662.55
2018-08-16T06:32:25.182Z,97661.67
2018-08-16T06:34:52.967Z,97656.25
2018-08-16T06:37:20.757Z,97657.80
2018-08-16T06:39:48.622Z,97655.80
2018-08-16T06:42:16.350Z,97657.47
2018-08-16T06:44:44.249Z,97656.05
2018-08-16T06:47:15.494Z,97656.27
2018-08-16T06:49:43.593Z,97656.27
2018-08-16T06:52:11.325Z,97658.08
2018-08-16T06:54:39.016Z,97651.08
2018-08-16T06:57:06.710Z,97660.52
2018-08-16T06:59:34.444Z,97659.77
2018-08-16T07:02:02.247Z,97662.08
2018-08-16T07:04:29.937Z,97657.05
2018-08-16T07:06:57.701Z,97661.42
2018-08-16T07:09:25.439Z,97660.45
2018-08-16T07:11:53.148Z,97661.67
2018-08-16T07:14:20.780Z,97652.72
2018-08-16T07:16:48.424Z,97656.42
2018-08-16T07:19:16.041Z,97653.17
2018-08-16T07:21:43.673Z,97643.70
2018-08-16T07:24:11.313Z,97656.43
2018-08-16T07:26:39.221Z,97646.87
2018-08-16T07:29:06.858Z,97650.00
2018-08-16T07:31:34.495Z,97652.38
2018-08-16T07:34:02.143Z,97648.19
2018-08-16T07:36:29.794Z,97645.95
2018-08-16T07:38:57.423Z,97644.47
2018-08-16T07:41:25.047Z,97642.56
2018-08-16T07:43:52.699Z,97647.42
2018-08-16T07:46:20.424Z,97642.01
2018-08-16T07:48:47.981Z,97644.38
2018-08-16T07:51:15.746Z,97642.89
2018-08-16T07:53:43.382Z,97643.70
2018-08-16T07:56:11.024Z,97642.55
2018-08-16T07:58:38.665Z,97640.06
2018-08-16T08:01:06.358Z,97643.23
2018-08-16T08:03:34.001Z,97635.91
2018-08-16T08:06:01.689Z,97633.76
2018-08-16T08:08:29.373Z,97643.10
2018-08-16T08:10:56.997Z,97635.78
2018-08-16T08:13:24.777Z,97635.23
2018-08-16T08:15:52.435Z,97631.59
2018-08-16T08:18:20.087Z,97630.48
2018-08-16T08:20:47.713Z,97629.34
2018-08-16T08:23:15.356Z,97625.75
2018-08-16T08:25:43.007Z,97631.37
2018-08-16T08:28:10.636Z,97629.47
2018-08-16T08:30:38.285Z,97635.34
2018-08-16T08:33:05.937Z,97628.78
2018-08-16T08:35:33.573Z,97622.26
2018-08-16T08:38:03.139Z,97619.77
2018-08-16T08:40:30.772Z,97625.98
2018-08-16T08:42:58.405Z,97620.22
2018-08-16T08:45:26.051Z,97616.93
2018-08-16T08:47:55.693Z,97614.47
2018-08-16T08:50:23.453Z,97606.77
2018-08-16T08:52:51.091Z,97611.08
2018-08-16T08:55:24.285Z,97611.84
2018-08-16T08:57:57.410Z,97610.73
2018-08-16T09:00:25.114Z,97605.74
2018-08-16T09:02:52.761Z,97606.54
2018-08-16T09:05:20.425Z,97602.70
2018-08-16T09:07:48.068Z,97596.72
2018-08-16T09:10:46.417Z,97598.53
2018-08-16T09:13:19.533Z,97593.89
2018-08-16T09:15:48.876Z,97591.42
2018-08-16T09:18:16.508Z,97594.34
2018-08-16T09:20:44.278Z,97591.29
2018-08-16T09:23:11.974Z,97584.52
2018-08-16T09:25:39.618Z,97590.95
2018-08-16T09:28:07.495Z,97585.74
2018-08-16T09:30:41.789Z,97579.22
2018-08-16T09:33:15.115Z,97583.48
2018-08-16T09:35:42.785Z,97576.93
2018-08-16T09:38:10.429Z,97571.72
2018-08-16T09:40:38.183Z,97566.55
2018-08-16T09:43:05.834Z,97571.38
2018-08-16T09:45:39.013Z,97561.34
2018-08-16T09:48:12.186Z,97564.51
2018-08-16T09:50:40.157Z,97562.56
2018-08-16T09:53:07.864Z,97560.87
2018-08-16T09:55:35.490Z,97552.73
2018-08-16T09:58:03.121Z,97536.73
2018-08-16T10:00:36.041Z,97541.00
2018-08-16T10:03:03.711Z,97546.08
2018-08-16T10:05:31.374Z,97551.70
2018-08-16T10:07:59.043Z,97542.67
2018-08-16T10:10:26.674Z,97538.61
2018-08-16T10:12:54.319Z,97538.82
2018-08-16T10:15:21.963Z,97536.56
2018-08-16T10:17:49.689Z,97530.59
2018-08-16T10:20:17.368Z,97532.37
2018-08-16T10:22:45.003Z,97522.88
2018-08-16T10:25:12.658Z,97530.45
2018-08-16T10:27:40.329Z,97521.19
2018-08-16T10:30:08.526Z,97521.63
2018-08-16T10:32:36.197Z,97518.02
2018-08-16T10:35:04.066Z,97516.67
2018-08-16T10:37:31.698Z,97519.59
2018-08-16T10:39:59.355Z,97517.88
2018-08-16T10:42:27.009Z,97510.55
2018-08-16T10:44:54.649Z,97501.48
2018-08-16T10:47:22.271Z,97504.44
2018-08-16T10:49:49.942Z,97499.78
2018-08-16T10:52:17.569Z,97503.50
2018-08-16T10:54:45.219Z,97498.30
2018-08-16T10:57:12.859Z,97497.18
2018-08-16T10:59:40.507Z,97492.00
2018-08-16T11:02:08.138Z,97494.36
2018-08-16T11:04:35.815Z,97498.63
2018-08-16T11:07:03.730Z,97496.72
2018-08-16T11:09:31.361Z,97492.31
2018-08-16T11:11:58.997Z,97487.09
2018-08-16T11:14:26.654Z,97483.83
2018-08-16T11:16:54.310Z,97478.06
2018-08-16T11:19:21.992Z,97476.91
2018-08-16T11:21:49.625Z,97469.58
2018-08-16T11:24:17.445Z,97472.73
2018-08-16T11:26:45.244Z,97475.66
2018-08-16T11:29:13.187Z,97478.37
2018-08-16T11:31:40.994Z,97476.11
2018-08-16T11:34:08.832Z,97462.97
2018-08-16T11:36:36.773Z,97465.92
2018-08-16T11:39:06.592Z,97457.20
2018-08-16T11:41:34.571Z,97445.59
2018-08-16T11:44:02.327Z,97447.36
2018-08-16T11:46:30.167Z,97448.16
2018-08-16T11:48:57.904Z,97444.30
2018-08-16T11:51:25.825Z,97448.02
2018-08-16T11:53:53.643Z,97450.96
2018-08-16T11:56:21.489Z,97437.41
2018-08-16T11:58:49.186Z,97451.97
2018-08-16T12:01:16.757Z,97443.45
2018-08-16T12:03:44.395Z,97436.91
2018-08-16T12:06:12.099Z,97435.77
2018-08-16T12:08:39.719Z,97435.20
2018-08-16T12:11:07.494Z,97432.91
2018-08-16T12:13:35.176Z,97425.02
2018-08-16T12:16:02.870Z,97425.02
2018-08-16T12:18:30.584Z,97427.38
2018-08-16T12:20:58.231Z,97424.87
2018-08-16T12:23:25.832Z,97417.53
2018-08-16T12:25:53.477Z,97427.44
2018-08-16T12:28:21.138Z,97421.09
2018-08-16T12:30:48.803Z,97416.23
2018-08-16T12:33:16.457Z,97417.23
2018-08-16T12:35:44.090Z,97420.19
2018-08-16T12:38:11.754Z,97410.11
2018-08-16T12:40:39.450Z,97412.47
2018-08-16T12:43:07.045Z,97408.05
2018-08-16T12:45:34.722Z,97404.77
2018-08-16T12:48:02.360Z,97396.34
2018-08-16T12:50:30.000Z,97400.35
2018-08-16T12:52:57.618Z,97391.30
2018-08-16T12:55:25.246Z,97388.59
2018-08-16T12:57:52.885Z,97397.73
2018-08-16T13:00:20.543Z,97396.58
2018-08-16T13:02:49.121Z,97390.00
2018-08-16T13:05:16.785Z,97383.22
2018-08-16T13:07:44.509Z,97381.31
2018-08-16T13:10:12.879Z,97377.68
2018-08-16T13:12:40.554Z,97376.89
2018-08-16T13:15:08.518Z,97370.31
2018-08-16T13:17:36.386Z,97361.61
2018-08-16T13:20:04.410Z,97361.82
2018-08-16T13:22:32.045Z,97354.27
2018-08-16T13:24:59.689Z,97360.11
2018-08-16T13:27:27.381Z,97359.55
2018-08-16T13:29:54.989Z,97354.33
2018-08-16T13:32:22.625Z,97356.48
2018-08-16T13:34:50.434Z,97357.24
2018-08-16T13:37:18.064Z,97356.36
2018-08-16T13:39:45.699Z,97350.38
2018-08-16T13:42:13.411Z,97351.94
2018-08-16T13:44:41.014Z,97339.73
2018-08-16T13:47:08.654Z,97332.59
2018-08-16T13:49:36.313Z,97332.03
2018-08-16T13:52:04.181Z,97334.16
2018-08-16T13:54:31.813Z,97332.23
2018-08-16T13:56:59.451Z,97327.61
2018-08-16T13:59:27.089Z,97326.45
2018-08-16T14:01:54.730Z,97323.94
2018-08-16T14:04:22.361Z,97326.66
2018-08-16T14:06:50.021Z,97326.30
2018-08-16T14:09:17.690Z,97322.82
2018-08-16T14:11:45.344Z,97317.39
2018-08-16T14:14:13.015Z,97317.39
2018-08-16T14:16:40.644Z,97318.95
2018-08-16T14:19:08.287Z,97317.04
2018-08-16T14:21:35.914Z,97319.39
2018-08-16T14:24:03.620Z,97313.61
2018-08-16T14:26:31.252Z,97306.03
2018-08-16T14:28:58.905Z,97300.41
2018-08-16T14:31:26.547Z,97303.52
2018-08-16T14:33:54.228Z,97309.19
2018-08-16T14:36:21.866Z,97305.67
2018-08-16T14:38:49.596Z,97309.74
2018-08-16T14:41:17.187Z,97301.81
2018-08-16T14:43:44.844Z,97295.82
2018-08-16T14:46:12.518Z,97291.75
2018-08-16T14:48:40.166Z,97295.82
2018-08-16T14:51:07.814Z,97295.82
2018-08-16T14:53:35.485Z,97299.89
2018-08-16T14:56:03.142Z,97294.67
2018-08-16T14:58:30.788Z,97294.11
2018-08-16T15:00:58.461Z,97293.55
2018-08-16T15:03:26.097Z,97293.31
2018-08-16T15:05:53.797Z,97298.38
2018-08-16T15:08:21.433Z,97294.91
2018-08-16T15:10:49.275Z,97292.19
2018-08-16T15:13:16.865Z,97291.03
2018-08-16T15:15:44.505Z,97297.81
2018-08-16T15:18:12.155Z,97292.95
2018-08-16T15:20:39.810Z,97298.38
2018-08-16T15:23:07.502Z,97289.48
2018-08-16T15:25:35.132Z,97283.45
2018-08-16T15:28:02.791Z,97286.97
2018-08-16T15:30:30.413Z,97285.61
2018-08-16T15:32:58.079Z,97285.61
2018-08-16T15:35:25.713Z,97287.17
2018-08-16T15:37:53.336Z,97284.25
2018-08-16T15:40:20.998Z,97280.19
2018-08-16T15:42:48.662Z,97276.11
2018-08-16T15:45:16.284Z,97276.11
2018-08-16T15:47:43.909Z,97271.84
2018-08-16T15:50:11.558Z,97272.05
2018-08-16T15:52:39.212Z,97275.55
2018-08-16T15:55:06.841Z,97270.13
2018-08-16T15:57:34.502Z,97271.48
2018-08-16T16:00:03.070Z,97276.11
2018-08-16T16:02:30.774Z,97273.20
2018-08-16T16:04:58.406Z,97273.96
2018-08-16T16:07:26.032Z,97266.62
2018-08-16T16:09:53.685Z,97272.05
2018-08-16T16:12:21.321Z,97274.20
2018-08-16T16:14:48.985Z,97269.33
2018-08-16T16:17:16.851Z,97269.69
2018-08-16T16:19:44.505Z,97265.63
2018-08-16T16:22:12.120Z,97259.40
2018-08-16T16:24:39.742Z,97257.48
2018-08-16T16:27:07.402Z,97259.40
2018-08-16T16:29:35.063Z,97252.62
2018-08-16T16:32:02.738Z,97259.63
2018-08-16T16:34:30.374Z,97252.62
2018-08-16T16:36:57.996Z,97252.05
2018-08-16T16:39:25.619Z,97256.69
2018-08-16T16:41:53.277Z,97256.13
2018-08-16T16:44:21.317Z,97258.05
2018-08-16T16:46:48.970Z,97256.13
2018-08-16T16:49:20.800Z,97244.28
2018-08-16T16:51:48.531Z,97250.27
2018-08-16T16:54:16.184Z,97246.98
2018-08-16T16:56:43.810Z,97238.06
2018-08-16T16:59:11.438Z,97240.20
2018-08-16T17:01:39.273Z,97234.58
2018-08-16T17:04:06.950Z,97242.13
2018-08-16T17:06:34.591Z,97242.72
2018-08-16T17:09:02.255Z,97249.50
2018-08-16T17:11:29.886Z,97247.35
2018-08-16T17:13:57.529Z,97245.20
2018-08-16T17:16:25.166Z,97241.13
2018-08-16T17:18:52.829Z,97247.14
2018-08-16T17:21:20.501Z,97243.44
2018-08-16T17:23:48.153Z,97238.58
2018-08-16T17:26:15.880Z,97239.37
2018-08-16T17:28:43.689Z,97241.84
2018-08-16T17:31:11.323Z,97239.13
2018-08-16T17:33:38.986Z,97237.78
2018-08-16T17:36:06.629Z,97242.44
2018-08-16T17:38:34.254Z,97242.44
2018-08-16T17:41:01.928Z,97238.14
2018-08-16T17:43:29.536Z,97238.73
2018-08-16T17:45:57.183Z,97241.44
2018-08-16T17:48:24.830Z,97237.94
2018-08-16T17:50:52.436Z,97241.44
2018-08-16T17:53:20.084Z,97238.30
2018-08-16T17:55:47.720Z,97236.94
2018-08-16T17:58:15.344Z,97235.58
2018-08-16T18:00:43.021Z,97238.30
2018-08-16T18:03:10.653Z,97240.21
2018-08-16T18:05:38.298Z,97230.52
2018-08-16T18:08:06.076Z,97234.59
2018-08-16T18:10:33.746Z,97231.08
2018-08-16T18:13:01.930Z,97229.16
2018-08-16T18:15:29.558Z,97230.08
2018-08-16T18:17:57.216Z,97232.80
2018-08-16T18:20:24.858Z,97236.09
2018-08-16T18:22:52.540Z,97236.09
2018-08-16T18:25:20.209Z,97233.95
2018-08-16T18:27:47.890Z,97234.51
2018-08-16T18:30:15.569Z,97235.66
2018-08-16T18:32:43.811Z,97233.48
2018-08-16T18:35:11.574Z,97245.36
2018-08-16T18:37:39.365Z,97242.97
2018-08-16T18:40:07.610Z,97243.56
2018-08-16T18:42:35.468Z,97240.62
2018-08-16T18:45:03.347Z,97251.47
2018-08-16T18:47:31.084Z,97249.34
2018-08-16T18:49:58.823Z,97247.99
2018-08-16T18:52:26.703Z,97248.55
2018-08-16T18:54:54.409Z,97257.84
2018-08-16T18:57:22.105Z,97261.11
2018-08-16T18:59:49.963Z,97262.27
2018-08-16T19:02:17.745Z,97261.67
2018-08-16T19:04:45.502Z,97261.47
2018-08-16T19:07:13.234Z,97262.06
2018-08-16T19:09:41.088Z,97257.41
2018-08-16T19:12:08.913Z,97255.41
2018-08-16T19:14:36.603Z,97259.12
2018-08-16T19:17:04.515Z,97263.55
2018-08-16T19:19:32.300Z,97262.98
2018-08-16T19:22:00.054Z,97268.20
2018-08-16T19:24:27.798Z,97265.49
2018-08-16T19:26:55.514Z,97267.41
2018-08-16T19:29:23.332Z,97274.19
2018-08-16T19:31:51.096Z,97280.17
2018-08-16T19:34:18.827Z,97267.97
2018-08-16T19:36:46.505Z,97277.46
2018-08-16T19:39:14.271Z,97272.39
2018-08-16T19:41:42.017Z,97272.19
2018-08-16T19:44:09.790Z,97270.04
2018-08-16T19:46:37.539Z,97271.63
2018-08-16T19:49:05.748Z,97269.27
2018-08-16T19:51:33.496Z,97266.33
2018-08-16T19:54:01.226Z,97269.84
2018-08-16T19:56:29.022Z,97265.56
2018-08-16T19:58:56.726Z,97269.63
2018-08-16T20:01:24.491Z,97267.28
2018-08-16T20:03:52.193Z,97270.19
2018-08-16T20:06:19.856Z,97272.70
2018-08-16T20:08:47.569Z,97265.69
2018-08-16T20:11:15.307Z,97267.04
2018-08-16T20:13:43.049Z,97235.67
2018-08-16T20:16:10.774Z,97270.91
2018-08-16T20:18:38.955Z,97261.98
2018-08-16T20:21:06.827Z,97265.28
2018-08-16T20:23:34.472Z,97259.63
2018-08-16T20:26:02.203Z,97265.63
2018-08-16T20:28:30.002Z,97265.40
2018-08-16T20:30:57.780Z,97268.91
2018-08-16T20:33:25.528Z,97268.70
2018-08-16T20:35:53.302Z,97267.11
2018-08-16T20:38:20.963Z,97268.70
2018-08-16T20:40:48.656Z,97271.98
2018-08-16T20:43:16.434Z,97266.91
2018-08-16T20:45:44.210Z,97269.62
2018-08-16T20:48:11.880Z,97265.34
2018-08-16T20:50:39.649Z,97266.70
2018-08-16T20:53:07.428Z,97260.69
2018-08-16T20:55:35.204Z,97267.83
2018-08-16T20:58:02.944Z,97268.98
2018-08-16T21:00:30.753Z,97268.18
2018-08-16T21:02:58.524Z,97277.67
2018-08-16T21:05:26.260Z,97276.91
2018-08-16T21:07:54.012Z,97278.82
2018-08-16T21:10:21.722Z,97275.91
2018-08-16T21:12:49.482Z,97275.91
2018-08-16T21:15:17.249Z,97280.53
2018-08-16T21:17:45.451Z,97274.91
2018-08-16T21:20:13.181Z,97274.91
2018-08-16T21:22:40.828Z,97281.89
2018-08-16T21:25:08.525Z,97281.24
2018-08-16T21:27:36.418Z,97278.53
2018-08-16T21:30:04.665Z,97283.16
2018-08-16T21:32:32.345Z,97287.81
2018-08-16T21:35:00.118Z,97279.69
2018-08-16T21:37:35.043Z,97291.88
2018-08-16T21:40:04.504Z,97288.94
2018-08-16T21:42:35.243Z,97292.80
2018-08-16T21:45:05.216Z,97290.88
2018-08-16T21:47:33.253Z,97292.23
2018-08-16T21:50:02.807Z,97289.09
2018-08-16T21:52:33.037Z,97290.44
2018-08-16T21:55:08.478Z,97292.95
2018-08-16T21:57:40.453Z,97291.80
2018-08-16T22:00:12.341Z,97299.72
2018-08-16T22:02:43.165Z,97298.37
2018-08-16T22:05:11.756Z,97305.14
2018-08-16T22:08:16.345Z,97298.92
2018-08-16T22:10:47.246Z,97300.08
2018-08-16T22:13:16.788Z,97299.88
2018-08-16T22:15:47.626Z,97306.06
2018-08-16T22:18:15.887Z,97306.06
2018-08-16T22:20:44.040Z,97301.78
2018-08-16T22:23:17.824Z,97298.28
2018-08-16T22:25:49.003Z,97305.65
2018-08-16T22:28:17.736Z,97302.14
2018-08-16T22:30:46.080Z,97299.43
2018-08-16T22:33:14.414Z,97302.94
2018-08-16T22:35:44.940Z,97301.14
2018-08-16T22:38:14.276Z,97302.29
2018-08-16T22:40:48.127Z,97298.98
2018-08-16T22:43:16.291Z,97301.50
2018-08-16T22:45:47.114Z,97296.63
2018-08-16T22:48:15.126Z,97290.21
2018-08-16T22:50:44.520Z,97292.36
2018-08-16T22:53:15.300Z,97292.92
2018-08-16T22:55:47.031Z,97296.22
2018-08-16T22:58:15.497Z,97291.16
2018-08-16T23:00:53.076Z,97284.59
2018-08-16T23:03:21.029Z,97285.14
2018-08-16T23:05:50.727Z,97281.44
2018-08-16T23:08:19.097Z,97282.23
2018-08-16T23:10:49.732Z,97279.31
2018-08-16T23:13:19.256Z,97276.95
2018-08-16T23:15:48.569Z,97268.03
2018-08-16T23:18:32.242Z,97276.95
2018-08-16T23:21:01.564Z,97284.85
2018-08-16T23:23:29.542Z,97285.44
2018-08-16T23:26:03.471Z,97284.64
2018-08-16T23:28:31.495Z,97284.64
2018-08-16T23:31:05.693Z,97277.67
2018-08-16T23:33:33.790Z,97277.67
2018-08-16T23:36:06.205Z,97284.20
2018-08-16T23:38:34.068Z,97277.43
2018-08-16T23:41:06.387Z,97272.60
2018-08-16T23:43:34.549Z,97271.80
2018-08-16T23:46:10.534Z,97268.30
2018-08-16T23:48:41.117Z,97267.74
2018-08-16T23:51:09.463Z,97268.30
2018-08-16T23:53:44.957Z,97269.45
2018-08-16T23:56:14.605Z,97262.47
2018-08-16T23:58:42.424Z,97259.49
